createdAt,value
2022-11-03T05:15:16.252Z,100178.81
2022-11-03T05:17:42.665Z,100184.06
2022-11-03T05:20:34.677Z,100176.22
2022-11-03T05:23:02.729Z,100180.59
2022-11-03T05:25:39.309Z,100172.78
2022-11-03T05:28:17.267Z,100176.28
2022-11-03T05:30:43.780Z,100168.41
2022-11-03T05:33:31.003Z,100162.41
2022-11-03T05:36:00.733Z,100150.19
2022-11-03T05:38:31.739Z,100149.34
2022-11-03T05:40:59.206Z,100149.34
2022-11-03T05:43:26.215Z,100144.09
2022-11-03T05:45:56.774Z,100145.81
2022-11-03T05:48:40.647Z,100139.75
2022-11-03T05:51:30.336Z,100131.94
2022-11-03T05:53:59.150Z,100138.88
2022-11-03T05:56:25.724Z,100137.09
2022-11-03T05:59:01.083Z,100136.25
2022-11-03T06:01:33.990Z,100136.25
2022-11-03T06:04:12.454Z,100135.38
2022-11-03T06:06:39.244Z,100124.09
2022-11-03T06:09:18.841Z,100120.59
2022-11-03T06:11:46.434Z,100110.16
2022-11-03T06:14:24.369Z,100113.66
2022-11-03T06:16:56.154Z,100104.88
2022-11-03T06:19:37.837Z,100101.44
2022-11-03T06:22:24.338Z,100107.53
2022-11-03T06:24:52.092Z,100109.31
2022-11-03T06:27:23.738Z,100108.38
2022-11-03T06:30:01.664Z,100112.75
2022-11-03T06:32:29.026Z,100098.78
2022-11-03T06:34:57.792Z,100100.53
2022-11-03T06:37:34.980Z,100101.44
2022-11-03T06:40:10.493Z,100090.09
2022-11-03T06:42:41.333Z,100096.16
2022-11-03T06:45:22.904Z,100095.38
2022-11-03T06:47:50.490Z,100097.94
2022-11-03T06:50:29.289Z,100091.75
2022-11-03T06:52:57.670Z,100087.41
2022-11-03T06:55:29.309Z,100093.47
2022-11-03T06:58:02.813Z,100090.81
2022-11-03T07:00:36.222Z,100090.78
2022-11-03T07:03:26.683Z,100088.09
2022-11-03T07:06:24.419Z,100086.31
2022-11-03T07:08:54.591Z,100087.13
2022-11-03T07:11:22.809Z,100084.44
2022-11-03T07:13:56.472Z,100083.50
2022-11-03T07:16:33.620Z,100076.50
2022-11-03T07:19:03.183Z,100072.97
2022-11-03T07:21:47.725Z,100070.28
2022-11-03T07:24:14.168Z,100069.31
2022-11-03T07:26:40.625Z,100057.91
2022-11-03T07:29:14.274Z,100047.41
2022-11-03T07:31:40.667Z,100036.81
2022-11-03T07:34:15.272Z,100031.50
2022-11-03T07:36:43.667Z,100033.13
2022-11-03T07:39:16.005Z,100026.94
2022-11-03T07:41:42.464Z,100019.94
2022-11-03T07:44:14.375Z,100012.84
2022-11-03T07:46:43.359Z,100007.41
2022-11-03T07:49:24.594Z,100014.31
2022-11-03T07:51:52.159Z,100006.22
2022-11-03T07:54:26.826Z,100003.44
2022-11-03T07:56:58.009Z,99996.31
2022-11-03T07:59:36.679Z,99997.22
2022-11-03T08:02:20.308Z,99983.94
2022-11-03T08:04:46.961Z,99979.38
2022-11-03T08:07:13.387Z,99979.97
2022-11-03T08:09:39.830Z,99980.56
2022-11-03T08:12:06.497Z,99981.25
2022-11-03T08:14:33.879Z,99972.25
2022-11-03T08:17:00.318Z,99973.03
2022-11-03T08:19:26.734Z,99966.69
2022-11-03T08:21:53.376Z,99960.44
2022-11-03T08:24:19.808Z,99954.31
2022-11-03T08:26:46.271Z,99956.31
2022-11-03T08:29:12.734Z,99956.16
2022-11-03T08:31:39.140Z,99963.84
2022-11-03T08:34:05.561Z,99961.16
2022-11-03T08:36:31.955Z,99960.44
2022-11-03T08:38:58.354Z,99938.78
2022-11-03T08:41:24.803Z,99929.81
2022-11-03T08:43:51.278Z,99928.88
2022-11-03T08:46:18.483Z,99925.16
2022-11-03T08:48:45.929Z,99925.19
2022-11-03T08:51:14.167Z,99916.31
2022-11-03T08:53:42.579Z,99912.72
2022-11-03T08:56:12.277Z,99902.13
2022-11-03T08:58:40.021Z,99908.13
2022-11-03T09:01:06.475Z,99921.59
2022-11-03T09:03:32.931Z,99924.53
2022-11-03T09:05:59.453Z,99920.84
2022-11-03T09:11:12.355Z,99930.31
2022-11-03T09:13:38.807Z,99928.16
2022-11-03T09:16:05.559Z,99932.25
2022-11-03T09:18:33.963Z,99936.19
2022-11-03T09:21:00.373Z,99925.44
2022-11-03T09:23:27.322Z,99919.72
2022-11-03T09:25:53.734Z,99908.03
2022-11-03T09:28:20.138Z,99898.88
2022-11-03T09:30:46.566Z,99889.50
2022-11-03T09:33:12.991Z,99885.69
2022-11-03T09:35:39.412Z,99885.00
2022-11-03T09:38:08.014Z,99878.91
2022-11-03T09:40:35.975Z,99874.00
2022-11-03T09:43:02.692Z,99874.56
2022-11-03T09:45:29.154Z,99869.44
2022-11-03T09:47:56.570Z,99869.84
2022-11-03T09:50:23.354Z,99860.56
2022-11-03T09:52:55.215Z,99853.00
2022-11-03T09:55:26.708Z,99857.16
2022-11-03T09:57:57.445Z,99855.31
2022-11-03T10:00:24.442Z,99842.50
2022-11-03T10:02:51.052Z,99830.53
2022-11-03T10:05:24.344Z,99830.38
2022-11-03T10:07:56.534Z,99830.78
2022-11-03T10:10:47.855Z,99825.56
2022-11-03T10:13:23.896Z,99810.84
2022-11-03T10:15:50.457Z,99805.00
2022-11-03T10:18:18.883Z,99792.00
2022-11-03T10:20:45.729Z,99791.75
2022-11-03T10:23:12.195Z,99791.63
2022-11-03T10:25:43.644Z,99790.50
2022-11-03T10:28:17.585Z,99770.56
2022-11-03T10:31:11.441Z,99745.94
2022-11-03T10:33:40.635Z,99729.38
2022-11-03T10:36:16.218Z,99730.97
2022-11-03T10:38:44.157Z,99726.53
2022-11-03T10:41:13.572Z,99734.84
2022-11-03T10:43:41.704Z,99738.81
2022-11-03T10:46:29.460Z,99741.75
2022-11-03T10:49:10.093Z,99738.47
2022-11-03T10:51:37.201Z,99749.03
2022-11-03T10:54:05.938Z,99747.38
2022-11-03T10:56:33.041Z,99735.19
2022-11-03T10:59:00.827Z,99728.59
2022-11-03T11:01:27.530Z,99722.25
2022-11-03T11:03:55.239Z,99718.81
2022-11-03T11:06:29.753Z,99703.78
2022-11-03T11:09:04.903Z,99692.56
2022-11-03T11:11:31.822Z,99683.91
2022-11-03T11:14:26.212Z,99686.66
2022-11-03T11:16:57.551Z,99686.56
2022-11-03T11:19:26.049Z,99660.53
2022-11-03T11:21:52.496Z,99659.59
2022-11-03T11:24:43.874Z,99650.16
2022-11-03T11:27:33.279Z,99646.25
2022-11-03T11:30:01.565Z,99649.16
2022-11-03T11:32:40.124Z,99643.25
2022-11-03T11:35:11.180Z,99630.88
2022-11-03T11:37:38.447Z,99629.16
2022-11-03T11:40:23.197Z,99623.66
2022-11-03T11:43:10.919Z,99614.16
2022-11-03T11:46:15.438Z,99602.88
2022-11-03T11:48:42.104Z,99607.63
2022-11-03T11:51:11.996Z,99603.91
2022-11-03T11:53:43.157Z,99600.53
2022-11-03T11:56:16.367Z,99611.50
2022-11-03T11:58:48.468Z,99613.06
2022-11-03T12:01:31.211Z,99616.19
2022-11-03T12:04:00.914Z,99607.88
2022-11-03T12:06:37.899Z,99602.50
2022-11-03T12:09:15.276Z,99604.22
2022-11-03T12:11:46.994Z,99606.69
2022-11-03T12:14:34.414Z,99588.38
2022-11-03T12:17:16.153Z,99590.28
2022-11-03T12:19:53.072Z,99583.53
2022-11-03T12:22:29.361Z,99575.44
2022-11-03T12:25:00.690Z,99558.97
2022-11-03T12:27:27.060Z,99551.88
2022-11-03T12:30:01.265Z,99542.53
2022-11-03T12:32:35.796Z,99535.09
2022-11-03T12:35:08.359Z,99522.91
2022-11-03T12:37:35.218Z,99510.41
2022-11-03T12:40:01.702Z,99499.25
2022-11-03T12:42:28.404Z,99507.66
2022-11-03T12:44:55.841Z,99515.50
2022-11-03T12:47:22.235Z,99511.22
2022-11-03T12:49:49.047Z,99499.72
2022-11-03T12:52:16.025Z,99496.03
2022-11-03T12:54:42.577Z,99484.72
2022-11-03T12:57:09.342Z,99475.38
2022-11-03T12:59:35.871Z,99481.25
2022-11-03T13:02:02.546Z,99482.97
2022-11-03T13:04:29.109Z,99483.69
2022-11-03T13:06:55.612Z,99481.00
2022-11-03T13:09:40.287Z,99469.94
2022-11-03T13:12:25.357Z,99460.22
2022-11-03T13:14:51.851Z,99435.34
2022-11-03T13:17:18.248Z,99434.66
2022-11-03T13:19:44.771Z,99440.94
2022-11-03T13:22:11.296Z,99442.75
2022-11-03T13:24:38.486Z,99437.34
2022-11-03T13:27:06.111Z,99433.47
2022-11-03T13:29:35.415Z,99427.75
2022-11-03T13:32:03.544Z,99410.19
2022-11-03T13:34:30.575Z,99397.91
2022-11-03T13:36:57.386Z,99379.47
2022-11-03T13:39:23.901Z,99383.03
2022-11-03T13:41:50.988Z,99371.47
2022-11-03T13:44:17.473Z,99371.25
2022-11-03T13:46:44.102Z,99362.94
2022-11-03T13:51:57.638Z,99370.19
2022-11-03T13:59:59.017Z,99361.78
2022-11-03T14:05:14.939Z,99348.59
2022-11-03T14:07:41.410Z,99340.59
2022-11-03T14:10:08.161Z,99330.66
2022-11-03T14:12:36.055Z,99333.44
2022-11-03T14:15:08.778Z,99324.91
2022-11-03T14:17:35.969Z,99305.25
2022-11-03T14:20:07.093Z,99302.16
2022-11-03T14:22:33.835Z,99313.25
2022-11-03T14:25:01.391Z,99309.47
2022-11-03T14:27:28.602Z,99302.91
2022-11-03T14:29:55.108Z,99290.50
2022-11-03T14:32:21.588Z,99284.78
2022-11-03T14:34:48.509Z,99278.91
2022-11-03T14:37:15.286Z,99260.19
2022-11-03T14:39:42.077Z,99249.09
2022-11-03T14:42:15.199Z,99251.03
2022-11-03T14:44:43.433Z,99252.75
2022-11-03T14:47:12.433Z,99247.78
2022-11-03T14:49:38.929Z,99243.13
2022-11-03T14:52:07.294Z,99249.88
2022-11-03T14:54:34.869Z,99245.38
2022-11-03T14:57:01.890Z,99250.78
2022-11-03T14:59:28.675Z,99249.78
2022-11-03T15:01:55.924Z,99248.91
2022-11-03T15:04:22.594Z,99243.63
2022-11-03T15:06:49.501Z,99237.59
2022-11-03T15:09:16.250Z,99231.44
2022-11-03T15:11:43.914Z,99230.34
2022-11-03T15:14:11.766Z,99229.53
2022-11-03T15:16:38.446Z,99228.06
2022-11-03T15:19:06.616Z,99231.94
2022-11-03T15:21:33.572Z,99220.09
2022-11-03T15:26:46.730Z,99214.63
2022-11-03T15:29:13.488Z,99210.84
2022-11-03T15:31:47.279Z,99204.56
2022-11-03T15:34:15.149Z,99203.78
2022-11-03T15:36:42.603Z,99199.94
2022-11-03T15:39:09.013Z,99191.69
2022-11-03T15:41:36.648Z,99183.72
2022-11-03T15:44:03.180Z,99180.69
2022-11-03T15:46:29.618Z,99175.41
2022-11-03T15:48:57.520Z,99173.56
2022-11-03T15:51:24.323Z,99165.44
2022-11-03T15:53:56.768Z,99155.34
2022-11-03T15:56:25.617Z,99156.56
2022-11-03T15:58:52.114Z,99149.34
2022-11-03T16:01:18.728Z,99151.84
2022-11-03T16:03:45.337Z,99152.47
2022-11-03T16:06:11.790Z,99146.03
2022-11-03T16:08:38.207Z,99138.94
2022-11-03T16:11:04.762Z,99130.28
2022-11-03T16:13:31.249Z,99127.63
2022-11-03T16:15:58.314Z,99124.38
2022-11-03T16:18:25.166Z,99117.94
2022-11-03T16:20:52.158Z,99103.44
2022-11-03T16:23:18.694Z,99114.06
2022-11-03T16:25:45.139Z,99108.91
2022-11-03T16:28:11.678Z,99104.53
2022-11-03T16:30:38.813Z,99102.19
2022-11-03T16:33:05.641Z,99096.31
2022-11-03T16:35:32.130Z,99097.09
2022-11-03T16:37:58.768Z,99091.97
2022-11-03T16:40:25.426Z,99088.97
2022-11-03T16:42:52.070Z,99089.47
2022-11-03T16:45:21.552Z,99074.66
2022-11-03T16:47:49.599Z,99078.25
2022-11-03T16:50:16.956Z,99082.56
2022-11-03T16:52:44.805Z,99084.38
2022-11-03T16:55:12.008Z,99083.69
2022-11-03T16:57:39.388Z,99091.66
2022-11-03T17:00:08.443Z,99091.13
2022-11-03T17:02:35.103Z,99080.03
2022-11-03T17:05:01.894Z,99080.72
2022-11-03T17:07:29.157Z,99065.78
2022-11-03T17:09:56.470Z,99071.06
2022-11-03T17:12:23.519Z,99066.72
2022-11-03T17:14:54.105Z,99063.13
2022-11-03T17:17:30.024Z,99062.13
2022-11-03T17:19:59.008Z,99054.06
2022-11-03T17:23:36.822Z,99050.13
2022-11-03T17:26:06.136Z,99042.91
2022-11-03T17:28:33.053Z,99034.53
2022-11-03T17:30:59.543Z,99020.13
2022-11-03T17:33:26.039Z,99009.22
2022-11-03T17:35:52.485Z,99007.91
2022-11-03T17:38:19.033Z,99002.88
2022-11-03T17:40:47.517Z,98980.34
2022-11-03T17:43:38.024Z,98973.81
2022-11-03T17:46:04.739Z,98979.88
2022-11-03T17:48:31.804Z,98975.59
2022-11-03T17:50:58.670Z,98974.53
2022-11-03T17:53:28.692Z,98984.53
2022-11-03T17:56:27.903Z,98978.63
2022-11-03T17:58:46.944Z,98967.41
2022-11-03T18:01:25.033Z,98953.31
2022-11-03T18:03:54.610Z,98955.09
2022-11-03T18:06:21.984Z,98953.09
2022-11-03T18:08:49.200Z,98959.19
2022-11-03T18:11:42.959Z,98943.56
2022-11-03T18:14:09.490Z,98944.88
2022-11-03T18:16:35.953Z,98944.88
2022-11-03T18:19:02.484Z,98937.66
2022-11-03T18:21:30.134Z,98935.13
2022-11-03T18:23:56.803Z,98930.31
2022-11-03T18:26:26.307Z,98913.56
2022-11-03T18:28:53.726Z,98919.59
2022-11-03T18:31:34.423Z,98902.97
2022-11-03T18:34:06.707Z,98905.22
2022-11-03T18:36:34.164Z,98901.44
2022-11-03T18:39:01.779Z,98894.16
2022-11-03T18:41:40.595Z,98895.94
2022-11-03T18:44:28.429Z,98881.75
2022-11-03T18:46:55.642Z,98887.88
2022-11-03T18:49:23.433Z,98896.53
2022-11-03T18:52:02.537Z,98901.13
2022-11-03T18:54:31.503Z,98908.94
2022-11-03T18:56:58.456Z,98899.19
2022-11-03T18:59:28.654Z,98909.66
2022-11-03T19:01:55.306Z,98941.00
2022-11-03T19:04:21.839Z,98948.16
2022-11-03T19:06:50.174Z,98953.97
2022-11-03T19:09:20.357Z,98947.47
2022-11-03T19:11:48.670Z,98949.97
2022-11-03T19:14:23.024Z,98966.34
2022-11-03T19:17:21.299Z,98959.75
2022-11-03T19:19:39.176Z,98952.56
2022-11-03T19:22:11.898Z,98944.84
2022-11-03T19:24:38.311Z,98942.97
2022-11-03T19:27:06.502Z,98928.34
2022-11-03T19:29:38.136Z,98919.91
2022-11-03T19:32:05.067Z,98909.69
2022-11-03T19:34:35.099Z,98896.97
2022-11-03T19:37:01.778Z,98883.81
2022-11-03T19:39:36.766Z,98882.47
2022-11-03T19:42:28.673Z,98875.06
2022-11-03T19:45:00.711Z,98877.44
2022-11-03T19:47:32.587Z,98869.09
2022-11-03T19:50:01.356Z,98873.28
2022-11-03T19:52:29.815Z,98867.16
2022-11-03T19:54:58.303Z,98866.53
2022-11-03T19:57:24.737Z,98855.53
2022-11-03T19:59:51.258Z,98853.75
2022-11-03T20:02:17.869Z,98863.91
2022-11-03T20:04:47.182Z,98859.94
2022-11-03T20:07:15.583Z,98849.88
2022-11-03T20:09:43.180Z,98855.41
2022-11-03T20:12:14.501Z,98843.94
2022-11-03T20:14:41.066Z,98854.38
2022-11-03T20:17:17.460Z,98838.66
2022-11-03T20:19:44.288Z,98840.06
2022-11-03T20:22:16.738Z,98836.59
2022-11-03T20:24:46.015Z,98829.56
2022-11-03T20:27:12.850Z,98835.09
2022-11-03T20:29:39.974Z,98835.75
2022-11-03T20:32:07.323Z,98834.88
2022-11-03T20:34:33.809Z,98833.59
2022-11-03T20:37:04.557Z,98832.19
2022-11-03T20:39:31.142Z,98825.22
2022-11-03T20:41:57.567Z,98825.13
2022-11-03T20:44:24.014Z,98813.69
2022-11-03T20:46:50.544Z,98802.69
2022-11-03T20:49:16.971Z,98799.38
2022-11-03T20:51:46.324Z,98787.84
2022-11-03T20:54:20.859Z,98788.13
2022-11-03T20:56:47.783Z,98787.84
2022-11-03T20:59:17.566Z,98791.50
2022-11-03T21:02:06.626Z,98799.53
2022-11-03T21:04:33.236Z,98791.31
2022-11-03T21:06:59.726Z,98786.66
2022-11-03T21:09:26.118Z,98783.88
2022-11-03T21:11:53.020Z,98799.81
2022-11-03T21:14:29.485Z,98800.59
2022-11-03T21:17:14.654Z,98790.22
2022-11-03T21:19:59.275Z,98779.03
2022-11-03T21:22:54.040Z,98782.34
2022-11-03T21:25:25.306Z,98792.72
2022-11-03T21:27:55.318Z,98791.69
2022-11-03T21:30:23.174Z,98784.44
2022-11-03T21:32:49.684Z,98778.00
2022-11-03T21:35:21.492Z,98779.56
2022-11-03T21:37:48.127Z,98781.66
2022-11-03T21:40:14.694Z,98785.59
2022-11-03T21:42:59.712Z,98784.97
2022-11-03T21:45:26.300Z,98791.91
2022-11-03T21:48:13.949Z,98797.91
2022-11-03T21:50:42.043Z,98799.72
2022-11-03T21:53:09.043Z,98789.53
2022-11-03T21:55:35.878Z,98794.59
2022-11-03T21:58:03.230Z,98796.41
2022-11-03T22:00:31.268Z,98792.22
2022-11-03T22:02:59.224Z,98776.28
2022-11-03T22:05:26.423Z,98792.53
2022-11-03T22:07:52.953Z,98785.81
2022-11-03T22:10:19.416Z,98795.72
2022-11-03T22:12:45.969Z,98801.88
2022-11-03T22:15:31.040Z,98806.50
2022-11-03T22:18:05.856Z,98818.75
2022-11-03T22:20:51.380Z,98831.47
2022-11-03T22:23:36.486Z,98831.59
2022-11-03T22:26:21.521Z,98841.78
2022-11-03T22:29:07.927Z,98841.13
2022-11-03T22:31:52.237Z,98833.47
2022-11-03T22:34:37.317Z,98829.09
2022-11-03T22:37:03.675Z,98818.28
2022-11-03T22:39:49.106Z,98822.56
2022-11-03T22:42:34.134Z,98818.41
2022-11-03T22:45:19.280Z,98823.66
2022-11-03T22:47:45.676Z,98839.03
2022-11-03T22:50:12.095Z,98856.69
2022-11-03T22:52:38.538Z,98853.50
2022-11-03T22:55:05.228Z,98848.75
2022-11-03T22:57:31.646Z,98845.25
2022-11-03T22:59:58.047Z,98849.56
